ENZV/SVG METAR and TAF weather

Enter ICAO airport designator
Station Type Date Time Source
ENZV METAR 2022/08/13 11:20 UTC NOAA

ENZV 131120Z 30009KT CAVOK 19/15 Q1021


Station Type Date Time Source
ENZV Decoded METAR 2022/08/13 11:20 UTC NOAA

Stavanger / Sola, Norway (ENZV) 58-53N 005-38E 9M
Aug 13, 2022 - 07:20 AM EDT / 2022.08.13 1120 UTC
Wind: from the WNW (300 degrees) at 10 MPH (9 KT):0
Visibility: greater than 7 mile(s):0
Temperature: 66 F (19 C)
Dew Point: 59 F (15 C)
Relative Humidity: 77%
Pressure (altimeter): 30.15 in. Hg (1021 hPa)
ob: ENZV 131120Z 30009KT CAVOK 19/15 Q1021
cycle: 11

Station Type Date Time Source
ENZV TAF 2022/08/13 06:58 UTC NOAA

TAF ENZV 130500Z 1306/1406 VRB03KT 9999 BKN005
TEMPO 1306/1308 0100 FG VV001
BECMG 1309/1312 32010KT FEW010
BECMG 1318/1320 VRB05KT PROB30
TEMPO 1402/1406 2000 BCFG

Example: see airport list